sensor_id;sensor_type;location;lat;lon;timestamp;temperature;humidity
52669;DHT22;59898;52.786;6.892;2022-07-17T00:01:35;16.20;99.90
52669;DHT22;59898;52.786;6.892;2022-07-17T00:04:56;16.10;99.90
52669;DHT22;59898;52.786;6.892;2022-07-17T00:08:16;16.00;99.90
52669;DHT22;59898;52.786;6.892;2022-07-17T00:11:37;16.10;99.90
52669;DHT22;59898;52.786;6.892;2022-07-17T00:14:58;16.00;99.90
52669;DHT22;59898;52.786;6.892;2022-07-17T00:18:19;15.80;99.90
52669;DHT22;59898;52.786;6.892;2022-07-17T00:21:40;16.10;99.90
52669;DHT22;59898;52.786;6.892;2022-07-17T00:25:00;16.40;99.90
52669;DHT22;59898;52.786;6.892;2022-07-17T00:28:21;16.60;99.90
52669;DHT22;59898;52.786;6.892;2022-07-17T00:31:43;16.70;99.90
52669;DHT22;59898;52.786;6.892;2022-07-17T00:35:04;17.00;99.90
52669;DHT22;59898;52.786;6.892;2022-07-17T00:38:25;17.10;99.90
52669;DHT22;59898;52.786;6.892;2022-07-17T00:41:46;17.20;99.90
52669;DHT22;59898;52.786;6.892;2022-07-17T00:45:08;17.30;99.90
52669;DHT22;59898;52.786;6.892;2022-07-17T00:48:29;17.30;99.90
52669;DHT22;59898;52.786;6.892;2022-07-17T00:51:50;17.30;99.90
52669;DHT22;59898;52.786;6.892;2022-07-17T00:55:12;17.10;99.90
52669;DHT22;59898;52.786;6.892;2022-07-17T00:58:35;17.00;99.90
52669;DHT22;59898;52.786;6.892;2022-07-17T01:01:56;16.90;99.90
52669;DHT22;59898;52.786;6.892;2022-07-17T01:05:18;16.80;99.90
52669;DHT22;59898;52.786;6.892;2022-07-17T01:08:39;16.50;99.90
52669;DHT22;59898;52.786;6.892;2022-07-17T01:11:59;16.50;99.90
52669;DHT22;59898;52.786;6.892;2022-07-17T01:15:20;16.00;99.90
52669;DHT22;59898;52.786;6.892;2022-07-17T01:18:41;16.30;99.90
52669;DHT22;59898;52.786;6.892;2022-07-17T01:22:02;16.20;99.90
52669;DHT22;59898;52.786;6.892;2022-07-17T01:25:23;15.90;99.90
52669;DHT22;59898;52.786;6.892;2022-07-17T01:28:44;15.80;99.90
52669;DHT22;59898;52.786;6.892;2022-07-17T01:32:05;15.80;99.90
52669;DHT22;59898;52.786;6.892;2022-07-17T01:35:26;15.90;99.90
52669;DHT22;59898;52.786;6.892;2022-07-17T01:38:47;15.70;99.90
52669;DHT22;59898;52.786;6.892;2022-07-17T01:42:08;15.80;99.90
52669;DHT22;59898;52.786;6.892;2022-07-17T01:45:29;15.80;99.90
52669;DHT22;59898;52.786;6.892;2022-07-17T01:48:49;16.20;99.90
52669;DHT22;59898;52.786;6.892;2022-07-17T01:52:10;15.80;99.90
52669;DHT22;59898;52.786;6.892;2022-07-17T01:55:31;15.70;99.90
52669;DHT22;59898;52.786;6.892;2022-07-17T01:58:52;15.70;99.90
52669;DHT22;59898;52.786;6.892;2022-07-17T02:02:13;15.60;99.90
52669;DHT22;59898;52.786;6.892;2022-07-17T02:05:36;15.40;99.90
52669;DHT22;59898;52.786;6.892;2022-07-17T02:08:57;15.50;99.90
52669;DHT22;59898;52.786;6.892;2022-07-17T02:12:17;15.30;99.90
52669;DHT22;59898;52.786;6.892;2022-07-17T02:15:38;15.00;99.90
52669;DHT22;59898;52.786;6.892;2022-07-17T02:18:59;14.90;99.90
52669;DHT22;59898;52.786;6.892;2022-07-17T02:22:19;14.80;99.90
52669;DHT22;59898;52.786;6.892;2022-07-17T02:25:40;14.90;99.90
52669;DHT22;59898;52.786;6.892;2022-07-17T02:29:01;14.90;99.90
52669;DHT22;59898;52.786;6.892;2022-07-17T02:32:22;14.80;99.90
52669;DHT22;59898;52.786;6.892;2022-07-17T02:35:42;14.70;99.90
52669;DHT22;59898;52.786;6.892;2022-07-17T02:39:03;14.70;99.90
52669;DHT22;59898;52.786;6.892;2022-07-17T02:42:26;14.60;99.90
52669;DHT22;59898;52.786;6.892;2022-07-17T02:45:47;14.60;99.90
52669;DHT22;59898;52.786;6.892;2022-07-17T02:49:07;14.60;99.90
52669;DHT22;59898;52.786;6.892;2022-07-17T02:52:28;14.60;99.90
52669;DHT22;59898;52.786;6.892;2022-07-17T02:55:49;14.50;99.90
52669;DHT22;59898;52.786;6.892;2022-07-17T02:59:10;14.30;99.90
52669;DHT22;59898;52.786;6.892;2022-07-17T03:02:31;14.40;99.90
52669;DHT22;59898;52.786;6.892;2022-07-17T03:05:51;14.50;99.90
52669;DHT22;59898;52.786;6.892;2022-07-17T03:09:12;14.40;99.90
52669;DHT22;59898;52.786;6.892;2022-07-17T03:12:33;14.40;99.90
52669;DHT22;59898;52.786;6.892;2022-07-17T03:15:53;14.40;99.90
52669;DHT22;59898;52.786;6.892;2022-07-17T03:19:14;14.30;99.90
52669;DHT22;59898;52.786;6.892;2022-07-17T03:22:35;14.00;99.90
52669;DHT22;59898;52.786;6.892;2022-07-17T03:25:56;13.70;99.90
52669;DHT22;59898;52.786;6.892;2022-07-17T03:29:17;14.20;99.90
52669;DHT22;59898;52.786;6.892;2022-07-17T03:32:38;14.00;99.90
52669;DHT22;59898;52.786;6.892;2022-07-17T03:35:58;14.10;99.90
52669;DHT22;59898;52.786;6.892;2022-07-17T03:39:19;14.10;99.90
52669;DHT22;59898;52.786;6.892;2022-07-17T03:42:40;14.10;99.90
52669;DHT22;59898;52.786;6.892;2022-07-17T03:46:00;14.10;99.90
52669;DHT22;59898;52.786;6.892;2022-07-17T03:49:21;14.10;99.90
52669;DHT22;59898;52.786;6.892;2022-07-17T03:52:42;14.00;99.90
52669;DHT22;59898;52.786;6.892;2022-07-17T03:56:03;14.00;99.90
52669;DHT22;59898;52.786;6.892;2022-07-17T03:59:25;14.10;99.90
52669;DHT22;59898;52.786;6.892;2022-07-17T04:02:46;14.00;99.90
52669;DHT22;59898;52.786;6.892;2022-07-17T04:06:06;13.90;99.90
52669;DHT22;59898;52.786;6.892;2022-07-17T04:09:27;13.90;99.90
52669;DHT22;59898;52.786;6.892;2022-07-17T04:12:48;13.80;99.90
52669;DHT22;59898;52.786;6.892;2022-07-17T04:16:08;13.90;99.90
52669;DHT22;59898;52.786;6.892;2022-07-17T04:19:29;14.00;99.90
52669;DHT22;59898;52.786;6.892;2022-07-17T04:22:50;14.00;99.90
52669;DHT22;59898;52.786;6.892;2022-07-17T04:26:10;14.00;99.90
52669;DHT22;59898;52.786;6.892;2022-07-17T04:29:31;14.10;99.90
52669;DHT22;59898;52.786;6.892;2022-07-17T04:32:52;14.00;99.90
52669;DHT22;59898;52.786;6.892;2022-07-17T04:36:12;13.90;99.90
52669;DHT22;59898;52.786;6.892;2022-07-17T04:39:33;14.00;99.90
52669;DHT22;59898;52.786;6.892;2022-07-17T04:42:54;13.90;99.90
52669;DHT22;59898;52.786;6.892;2022-07-17T04:46:14;13.90;99.90
52669;DHT22;59898;52.786;6.892;2022-07-17T04:49:35;14.10;99.90
52669;DHT22;59898;52.786;6.892;2022-07-17T04:52:56;14.20;99.90
52669;DHT22;59898;52.786;6.892;2022-07-17T04:56:17;14.20;99.90
52669;DHT22;59898;52.786;6.892;2022-07-17T04:59:38;14.30;99.90
52669;DHT22;59898;52.786;6.892;2022-07-17T05:02:59;14.40;99.90
52669;DHT22;59898;52.786;6.892;2022-07-17T05:06:19;14.60;99.90
52669;DHT22;59898;52.786;6.892;2022-07-17T05:09:40;14.40;99.90
52669;DHT22;59898;52.786;6.892;2022-07-17T05:13:01;14.40;99.90
52669;DHT22;59898;52.786;6.892;2022-07-17T05:16:21;14.40;99.90
52669;DHT22;59898;52.786;6.892;2022-07-17T05:19:42;14.40;99.90
52669;DHT22;59898;52.786;6.892;2022-07-17T05:23:03;14.30;99.90
52669;DHT22;59898;52.786;6.892;2022-07-17T05:26:24;14.30;99.90
52669;DHT22;59898;52.786;6.892;2022-07-17T05:29:45;14.40;99.90
52669;DHT22;59898;52.786;6.892;2022-07-17T05:33:05;14.50;99.90
52669;DHT22;59898;52.786;6.892;2022-07-17T05:36:26;14.70;99.90
52669;DHT22;59898;52.786;6.892;2022-07-17T05:39:47;14.60;99.90
52669;DHT22;59898;52.786;6.892;2022-07-17T05:43:08;14.60;99.90
52669;DHT22;59898;52.786;6.892;2022-07-17T05:46:29;14.70;99.90
52669;DHT22;59898;52.786;6.892;2022-07-17T05:49:49;14.70;99.90
52669;DHT22;59898;52.786;6.892;2022-07-17T05:53:10;14.90;99.90
52669;DHT22;59898;52.786;6.892;2022-07-17T05:56:31;15.00;99.90
52669;DHT22;59898;52.786;6.892;2022-07-17T05:59:52;15.10;99.90
52669;DHT22;59898;52.786;6.892;2022-07-17T06:03:12;15.10;99.90
52669;DHT22;59898;52.786;6.892;2022-07-17T06:06:33;15.00;99.90
52669;DHT22;59898;52.786;6.892;2022-07-17T06:09:54;15.20;99.90
52669;DHT22;59898;52.786;6.892;2022-07-17T06:13:15;15.20;99.90
52669;DHT22;59898;52.786;6.892;2022-07-17T06:16:35;15.70;99.90
52669;DHT22;59898;52.786;6.892;2022-07-17T06:19:56;15.80;99.90
52669;DHT22;59898;52.786;6.892;2022-07-17T06:23:17;16.10;99.90
52669;DHT22;59898;52.786;6.892;2022-07-17T06:26:37;16.30;99.90
52669;DHT22;59898;52.786;6.892;2022-07-17T06:29:58;16.70;99.90
52669;DHT22;59898;52.786;6.892;2022-07-17T06:33:19;16.80;99.90
52669;DHT22;59898;52.786;6.892;2022-07-17T06:36:40;16.80;99.90
52669;DHT22;59898;52.786;6.892;2022-07-17T06:40:01;16.90;99.90
52669;DHT22;59898;52.786;6.892;2022-07-17T06:43:21;16.90;99.90
52669;DHT22;59898;52.786;6.892;2022-07-17T06:46:43;17.10;99.90
52669;DHT22;59898;52.786;6.892;2022-07-17T06:50:04;17.20;99.90
52669;DHT22;59898;52.786;6.892;2022-07-17T06:53:24;17.30;99.90
52669;DHT22;59898;52.786;6.892;2022-07-17T06:56:45;17.50;99.90
52669;DHT22;59898;52.786;6.892;2022-07-17T07:00:06;17.80;99.90
52669;DHT22;59898;52.786;6.892;2022-07-17T07:03:29;17.90;99.90
52669;DHT22;59898;52.786;6.892;2022-07-17T07:06:49;18.00;99.90
52669;DHT22;59898;52.786;6.892;2022-07-17T07:10:10;18.10;99.90
52669;DHT22;59898;52.786;6.892;2022-07-17T07:13:31;18.30;99.90
52669;DHT22;59898;52.786;6.892;2022-07-17T07:16:51;18.40;99.90
52669;DHT22;59898;52.786;6.892;2022-07-17T07:20:12;18.70;99.90
52669;DHT22;59898;52.786;6.892;2022-07-17T07:23:33;18.80;99.90
52669;DHT22;59898;52.786;6.892;2022-07-17T07:26:53;18.90;99.90
52669;DHT22;59898;52.786;6.892;2022-07-17T07:30:14;19.00;99.90
52669;DHT22;59898;52.786;6.892;2022-07-17T07:33:35;18.90;99.90
52669;DHT22;59898;52.786;6.892;2022-07-17T07:36:56;19.10;99.90
52669;DHT22;59898;52.786;6.892;2022-07-17T07:40:16;19.10;99.90
52669;DHT22;59898;52.786;6.892;2022-07-17T07:43:37;19.00;99.90
52669;DHT22;59898;52.786;6.892;2022-07-17T07:46:58;19.00;99.90
52669;DHT22;59898;52.786;6.892;2022-07-17T07:50:22;19.20;99.90
52669;DHT22;59898;52.786;6.892;2022-07-17T07:53:43;19.10;99.90
52669;DHT22;59898;52.786;6.892;2022-07-17T07:57:03;19.10;99.90
52669;DHT22;59898;52.786;6.892;2022-07-17T08:00:24;19.20;99.90
52669;DHT22;59898;52.786;6.892;2022-07-17T08:03:45;19.20;99.90
52669;DHT22;59898;52.786;6.892;2022-07-17T08:07:05;19.20;99.90
52669;DHT22;59898;52.786;6.892;2022-07-17T08:10:27;19.40;99.90
52669;DHT22;59898;52.786;6.892;2022-07-17T08:13:47;19.60;99.90
52669;DHT22;59898;52.786;6.892;2022-07-17T08:17:08;19.80;99.90
52669;DHT22;59898;52.786;6.892;2022-07-17T08:20:29;19.90;99.90
52669;DHT22;59898;52.786;6.892;2022-07-17T08:23:50;20.10;99.90
52669;DHT22;59898;52.786;6.892;2022-07-17T08:27:10;20.20;99.90
52669;DHT22;59898;52.786;6.892;2022-07-17T08:30:31;20.20;99.90
52669;DHT22;59898;52.786;6.892;2022-07-17T08:33:55;20.30;99.90
52669;DHT22;59898;52.786;6.892;2022-07-17T08:37:15;20.30;99.90
52669;DHT22;59898;52.786;6.892;2022-07-17T08:40:37;20.40;99.90
52669;DHT22;59898;52.786;6.892;2022-07-17T08:43:59;20.50;99.90
52669;DHT22;59898;52.786;6.892;2022-07-17T08:47:21;20.70;99.90
52669;DHT22;59898;52.786;6.892;2022-07-17T08:50:43;20.90;99.90
52669;DHT22;59898;52.786;6.892;2022-07-17T08:54:04;21.00;99.90
52669;DHT22;59898;52.786;6.892;2022-07-17T08:57:24;21.10;99.90
52669;DHT22;59898;52.786;6.892;2022-07-17T09:00:45;21.10;99.90
52669;DHT22;59898;52.786;6.892;2022-07-17T09:04:06;21.20;99.90
52669;DHT22;59898;52.786;6.892;2022-07-17T09:07:27;21.30;99.90
52669;DHT22;59898;52.786;6.892;2022-07-17T09:10:49;21.30;98.00
52669;DHT22;59898;52.786;6.892;2022-07-17T09:14:12;21.50;99.90
52669;DHT22;59898;52.786;6.892;2022-07-17T09:17:33;21.30;99.70
52669;DHT22;59898;52.786;6.892;2022-07-17T09:20:57;21.80;99.60
52669;DHT22;59898;52.786;6.892;2022-07-17T09:24:18;22.10;99.40
52669;DHT22;59898;52.786;6.892;2022-07-17T09:27:38;22.10;99.40
52669;DHT22;59898;52.786;6.892;2022-07-17T09:30:59;22.10;99.20
52669;DHT22;59898;52.786;6.892;2022-07-17T09:34:20;22.20;99.00
52669;DHT22;59898;52.786;6.892;2022-07-17T09:37:41;22.20;98.90
52669;DHT22;59898;52.786;6.892;2022-07-17T09:41:22;22.10;98.60
52669;DHT22;59898;52.786;6.892;2022-07-17T09:44:54;21.80;98.90
52669;DHT22;59898;52.786;6.892;2022-07-17T09:48:15;21.80;99.00
52669;DHT22;59898;52.786;6.892;2022-07-17T09:51:39;21.90;99.20
52669;DHT22;59898;52.786;6.892;2022-07-17T09:55:01;21.70;98.30
52669;DHT22;59898;52.786;6.892;2022-07-17T09:58:23;21.50;98.70
52669;DHT22;59898;52.786;6.892;2022-07-17T10:01:45;21.60;98.30
52669;DHT22;59898;52.786;6.892;2022-07-17T10:05:11;21.50;97.80
52669;DHT22;59898;52.786;6.892;2022-07-17T10:08:33;21.50;98.00
52669;DHT22;59898;52.786;6.892;2022-07-17T10:11:55;21.80;97.90
52669;DHT22;59898;52.786;6.892;2022-07-17T10:15:16;22.20;97.50
52669;DHT22;59898;52.786;6.892;2022-07-17T10:18:44;22.50;97.40
52669;DHT22;59898;52.786;6.892;2022-07-17T10:22:05;22.80;97.20
52669;DHT22;59898;52.786;6.892;2022-07-17T10:25:29;23.00;97.20
52669;DHT22;59898;52.786;6.892;2022-07-17T10:28:49;23.10;96.30
52669;DHT22;59898;52.786;6.892;2022-07-17T10:32:18;22.80;96.20
52669;DHT22;59898;52.786;6.892;2022-07-17T10:35:47;22.70;96.20
52669;DHT22;59898;52.786;6.892;2022-07-17T10:39:16;22.50;96.40
52669;DHT22;59898;52.786;6.892;2022-07-17T10:42:43;22.50;96.40
52669;DHT22;59898;52.786;6.892;2022-07-17T10:46:04;22.70;96.50
52669;DHT22;59898;52.786;6.892;2022-07-17T10:49:25;22.50;96.40
52669;DHT22;59898;52.786;6.892;2022-07-17T10:56:24;22.80;95.80
52669;DHT22;59898;52.786;6.892;2022-07-17T10:59:45;23.10;95.90
52669;DHT22;59898;52.786;6.892;2022-07-17T11:03:11;23.70;95.70
52669;DHT22;59898;52.786;6.892;2022-07-17T11:06:36;23.80;95.30
52669;DHT22;59898;52.786;6.892;2022-07-17T11:09:58;24.00;95.00
52669;DHT22;59898;52.786;6.892;2022-07-17T11:13:18;24.20;94.70
52669;DHT22;59898;52.786;6.892;2022-07-17T11:20:16;24.50;93.30
52669;DHT22;59898;52.786;6.892;2022-07-17T11:23:53;24.70;93.70
52669;DHT22;59898;52.786;6.892;2022-07-17T11:27:30;24.90;93.40
52669;DHT22;59898;52.786;6.892;2022-07-17T11:30:52;25.20;93.90
52669;DHT22;59898;52.786;6.892;2022-07-17T11:34:12;25.40;93.50
52669;DHT22;59898;52.786;6.892;2022-07-17T11:37:33;25.40;93.20
52669;DHT22;59898;52.786;6.892;2022-07-17T11:40:54;25.50;93.20
52669;DHT22;59898;52.786;6.892;2022-07-17T11:44:17;25.70;93.20
52669;DHT22;59898;52.786;6.892;2022-07-17T11:47:38;25.90;92.70
52669;DHT22;59898;52.786;6.892;2022-07-17T11:50:59;25.90;92.80
52669;DHT22;59898;52.786;6.892;2022-07-17T11:54:19;26.00;92.60
52669;DHT22;59898;52.786;6.892;2022-07-17T11:57:48;26.10;92.40
52669;DHT22;59898;52.786;6.892;2022-07-17T12:01:09;26.10;92.20
52669;DHT22;59898;52.786;6.892;2022-07-17T12:04:30;26.20;92.10
52669;DHT22;59898;52.786;6.892;2022-07-17T12:07:51;26.10;92.30
52669;DHT22;59898;52.786;6.892;2022-07-17T12:11:11;26.10;92.50
52669;DHT22;59898;52.786;6.892;2022-07-17T12:14:33;26.10;92.40
52669;DHT22;59898;52.786;6.892;2022-07-17T12:17:53;26.20;92.50
52669;DHT22;59898;52.786;6.892;2022-07-17T12:21:14;26.20;92.20
52669;DHT22;59898;52.786;6.892;2022-07-17T12:24:43;26.00;92.20
52669;DHT22;59898;52.786;6.892;2022-07-17T12:28:04;25.80;92.20
52669;DHT22;59898;52.786;6.892;2022-07-17T12:31:25;26.00;92.20
52669;DHT22;59898;52.786;6.892;2022-07-17T12:34:48;26.00;91.80
52669;DHT22;59898;52.786;6.892;2022-07-17T12:38:09;25.90;91.80
52669;DHT22;59898;52.786;6.892;2022-07-17T12:41:30;26.00;91.70
52669;DHT22;59898;52.786;6.892;2022-07-17T12:44:50;25.90;91.50
52669;DHT22;59898;52.786;6.892;2022-07-17T12:48:11;25.90;91.50
52669;DHT22;59898;52.786;6.892;2022-07-17T12:51:32;25.90;91.30
52669;DHT22;59898;52.786;6.892;2022-07-17T12:54:53;25.80;91.60
52669;DHT22;59898;52.786;6.892;2022-07-17T12:58:14;26.00;91.90
52669;DHT22;59898;52.786;6.892;2022-07-17T13:01:35;26.10;91.50
52669;DHT22;59898;52.786;6.892;2022-07-17T13:04:56;26.20;91.50
52669;DHT22;59898;52.786;6.892;2022-07-17T13:08:16;26.30;91.40
52669;DHT22;59898;52.786;6.892;2022-07-17T13:11:37;26.50;91.20
52669;DHT22;59898;52.786;6.892;2022-07-17T13:14:58;26.60;91.10
52669;DHT22;59898;52.786;6.892;2022-07-17T13:18:18;26.70;90.90
52669;DHT22;59898;52.786;6.892;2022-07-17T13:21:39;26.80;90.80
52669;DHT22;59898;52.786;6.892;2022-07-17T13:25:00;27.00;90.80
52669;DHT22;59898;52.786;6.892;2022-07-17T13:28:21;26.70;90.50
52669;DHT22;59898;52.786;6.892;2022-07-17T13:31:41;26.20;90.90
52669;DHT22;59898;52.786;6.892;2022-07-17T13:35:03;26.30;91.00
52669;DHT22;59898;52.786;6.892;2022-07-17T13:38:24;26.50;91.00
52669;DHT22;59898;52.786;6.892;2022-07-17T13:41:45;26.70;91.00
52669;DHT22;59898;52.786;6.892;2022-07-17T13:45:06;27.00;90.80
52669;DHT22;59898;52.786;6.892;2022-07-17T13:48:27;27.00;90.70
52669;DHT22;59898;52.786;6.892;2022-07-17T13:51:48;27.00;90.90
52669;DHT22;59898;52.786;6.892;2022-07-17T13:55:09;27.20;90.70
52669;DHT22;59898;52.786;6.892;2022-07-17T13:58:30;27.20;90.60
52669;DHT22;59898;52.786;6.892;2022-07-17T14:01:53;27.20;90.40
52669;DHT22;59898;52.786;6.892;2022-07-17T14:05:13;27.40;90.30
52669;DHT22;59898;52.786;6.892;2022-07-17T14:08:35;27.10;90.50
52669;DHT22;59898;52.786;6.892;2022-07-17T14:11:56;27.10;90.50
52669;DHT22;59898;52.786;6.892;2022-07-17T14:15:17;27.40;90.60
52669;DHT22;59898;52.786;6.892;2022-07-17T14:18:43;27.40;90.30
52669;DHT22;59898;52.786;6.892;2022-07-17T14:22:18;27.50;90.00
52669;DHT22;59898;52.786;6.892;2022-07-17T14:25:39;27.60;90.50
52669;DHT22;59898;52.786;6.892;2022-07-17T14:29:00;27.60;90.30
52669;DHT22;59898;52.786;6.892;2022-07-17T14:32:21;27.30;90.40
52669;DHT22;59898;52.786;6.892;2022-07-17T14:35:42;27.10;90.50
52669;DHT22;59898;52.786;6.892;2022-07-17T14:39:03;27.20;90.50
52669;DHT22;59898;52.786;6.892;2022-07-17T14:42:23;27.30;90.50
52669;DHT22;59898;52.786;6.892;2022-07-17T14:45:44;27.40;90.50
52669;DHT22;59898;52.786;6.892;2022-07-17T14:49:05;27.50;90.40
52669;DHT22;59898;52.786;6.892;2022-07-17T14:52:26;27.50;90.30
52669;DHT22;59898;52.786;6.892;2022-07-17T14:55:47;27.60;90.30
52669;DHT22;59898;52.786;6.892;2022-07-17T14:59:07;27.60;90.20
52669;DHT22;59898;52.786;6.892;2022-07-17T15:02:28;27.40;90.20
52669;DHT22;59898;52.786;6.892;2022-07-17T15:05:49;27.30;90.30
52669;DHT22;59898;52.786;6.892;2022-07-17T15:09:10;27.10;90.70
52669;DHT22;59898;52.786;6.892;2022-07-17T15:12:31;26.70;91.20
52669;DHT22;59898;52.786;6.892;2022-07-17T15:15:52;26.60;91.50
52669;DHT22;59898;52.786;6.892;2022-07-17T15:19:14;26.40;91.70
52669;DHT22;59898;52.786;6.892;2022-07-17T15:22:34;26.30;91.90
52669;DHT22;59898;52.786;6.892;2022-07-17T15:25:55;26.10;92.20
52669;DHT22;59898;52.786;6.892;2022-07-17T15:29:16;25.90;92.50
52669;DHT22;59898;52.786;6.892;2022-07-17T15:32:37;25.80;92.70
52669;DHT22;59898;52.786;6.892;2022-07-17T15:36:01;25.80;92.70
52669;DHT22;59898;52.786;6.892;2022-07-17T15:39:22;25.80;92.80
52669;DHT22;59898;52.786;6.892;2022-07-17T15:42:42;25.60;92.90
52669;DHT22;59898;52.786;6.892;2022-07-17T15:46:03;25.50;93.20
52669;DHT22;59898;52.786;6.892;2022-07-17T15:49:24;25.30;93.30
52669;DHT22;59898;52.786;6.892;2022-07-17T15:52:45;25.30;93.50
52669;DHT22;59898;52.786;6.892;2022-07-17T15:56:06;25.20;93.60
52669;DHT22;59898;52.786;6.892;2022-07-17T15:59:27;25.20;93.80
52669;DHT22;59898;52.786;6.892;2022-07-17T16:02:47;24.90;93.90
52669;DHT22;59898;52.786;6.892;2022-07-17T16:06:08;25.10;94.00
52669;DHT22;59898;52.786;6.892;2022-07-17T16:09:29;25.00;94.10
52669;DHT22;59898;52.786;6.892;2022-07-17T16:12:49;24.90;94.20
52669;DHT22;59898;52.786;6.892;2022-07-17T16:16:10;25.10;94.30
52669;DHT22;59898;52.786;6.892;2022-07-17T16:19:31;25.10;94.30
52669;DHT22;59898;52.786;6.892;2022-07-17T16:22:52;25.30;94.30
52669;DHT22;59898;52.786;6.892;2022-07-17T16:26:12;25.10;94.20
52669;DHT22;59898;52.786;6.892;2022-07-17T16:29:33;25.20;94.10
52669;DHT22;59898;52.786;6.892;2022-07-17T16:32:54;25.30;94.20
52669;DHT22;59898;52.786;6.892;2022-07-17T16:36:14;25.50;94.20
52669;DHT22;59898;52.786;6.892;2022-07-17T16:39:35;25.70;93.80
52669;DHT22;59898;52.786;6.892;2022-07-17T16:42:56;26.00;93.60
52669;DHT22;59898;52.786;6.892;2022-07-17T16:46:17;26.00;93.50
52669;DHT22;59898;52.786;6.892;2022-07-17T16:49:38;26.20;93.50
52669;DHT22;59898;52.786;6.892;2022-07-17T16:52:59;26.10;93.50
52669;DHT22;59898;52.786;6.892;2022-07-17T16:56:20;25.80;93.50
52669;DHT22;59898;52.786;6.892;2022-07-17T16:59:41;25.90;93.50
52669;DHT22;59898;52.786;6.892;2022-07-17T17:03:03;25.90;93.50
52669;DHT22;59898;52.786;6.892;2022-07-17T17:06:24;25.70;93.40
52669;DHT22;59898;52.786;6.892;2022-07-17T17:09:45;25.90;93.40
52669;DHT22;59898;52.786;6.892;2022-07-17T17:13:05;25.60;93.20
52669;DHT22;59898;52.786;6.892;2022-07-17T17:16:26;25.40;93.60
52669;DHT22;59898;52.786;6.892;2022-07-17T17:19:47;25.30;93.70
52669;DHT22;59898;52.786;6.892;2022-07-17T17:23:08;25.00;93.90
52669;DHT22;59898;52.786;6.892;2022-07-17T17:26:29;25.10;94.00
52669;DHT22;59898;52.786;6.892;2022-07-17T17:29:50;25.00;94.00
52669;DHT22;59898;52.786;6.892;2022-07-17T17:33:11;25.30;94.30
52669;DHT22;59898;52.786;6.892;2022-07-17T17:36:32;24.90;94.10
52669;DHT22;59898;52.786;6.892;2022-07-17T17:39:52;24.80;94.30
52669;DHT22;59898;52.786;6.892;2022-07-17T17:43:13;24.80;94.40
52669;DHT22;59898;52.786;6.892;2022-07-17T17:46:34;24.70;94.40
52669;DHT22;59898;52.786;6.892;2022-07-17T17:49:55;24.70;94.40
52669;DHT22;59898;52.786;6.892;2022-07-17T17:53:15;24.60;94.50
52669;DHT22;59898;52.786;6.892;2022-07-17T17:56:36;24.40;94.60
52669;DHT22;59898;52.786;6.892;2022-07-17T17:59:57;24.50;94.60
52669;DHT22;59898;52.786;6.892;2022-07-17T18:03:17;24.50;94.60
52669;DHT22;59898;52.786;6.892;2022-07-17T18:06:38;24.50;94.60
52669;DHT22;59898;52.786;6.892;2022-07-17T18:09:59;24.40;94.90
52669;DHT22;59898;52.786;6.892;2022-07-17T18:13:20;24.40;94.90
52669;DHT22;59898;52.786;6.892;2022-07-17T18:16:41;24.30;94.90
52669;DHT22;59898;52.786;6.892;2022-07-17T18:20:02;24.30;94.90
52669;DHT22;59898;52.786;6.892;2022-07-17T18:23:23;24.40;94.80
52669;DHT22;59898;52.786;6.892;2022-07-17T18:26:44;24.30;95.00
52669;DHT22;59898;52.786;6.892;2022-07-17T18:30:05;24.30;95.20
52669;DHT22;59898;52.786;6.892;2022-07-17T18:33:26;24.20;95.20
52669;DHT22;59898;52.786;6.892;2022-07-17T18:36:47;24.10;95.40
52669;DHT22;59898;52.786;6.892;2022-07-17T18:40:08;23.80;95.50
52669;DHT22;59898;52.786;6.892;2022-07-17T18:43:30;24.00;95.30
52669;DHT22;59898;52.786;6.892;2022-07-17T18:46:51;23.90;95.60
52669;DHT22;59898;52.786;6.892;2022-07-17T18:50:11;24.40;95.80
52669;DHT22;59898;52.786;6.892;2022-07-17T18:53:32;23.90;95.60
52669;DHT22;59898;52.786;6.892;2022-07-17T18:56:55;23.90;95.40
52669;DHT22;59898;52.786;6.892;2022-07-17T19:00:15;23.70;95.80
52669;DHT22;59898;52.786;6.892;2022-07-17T19:03:37;23.60;95.60
52669;DHT22;59898;52.786;6.892;2022-07-17T19:06:59;23.60;95.50
52669;DHT22;59898;52.786;6.892;2022-07-17T19:10:19;23.60;95.60
52669;DHT22;59898;52.786;6.892;2022-07-17T19:13:41;23.60;95.60
52669;DHT22;59898;52.786;6.892;2022-07-17T19:17:02;23.50;95.50
52669;DHT22;59898;52.786;6.892;2022-07-17T19:20:23;23.50;95.50
52669;DHT22;59898;52.786;6.892;2022-07-17T19:23:44;23.30;95.60
52669;DHT22;59898;52.786;6.892;2022-07-17T19:27:05;23.40;95.60
52669;DHT22;59898;52.786;6.892;2022-07-17T19:30:26;23.20;95.70
52669;DHT22;59898;52.786;6.892;2022-07-17T19:33:47;23.20;95.60
52669;DHT22;59898;52.786;6.892;2022-07-17T19:37:08;23.10;95.90
52669;DHT22;59898;52.786;6.892;2022-07-17T19:40:28;23.10;96.00
52669;DHT22;59898;52.786;6.892;2022-07-17T19:43:49;23.00;96.30
52669;DHT22;59898;52.786;6.892;2022-07-17T19:47:10;23.00;96.50
52669;DHT22;59898;52.786;6.892;2022-07-17T19:50:31;22.90;96.60
52669;DHT22;59898;52.786;6.892;2022-07-17T19:53:52;22.80;96.70
52669;DHT22;59898;52.786;6.892;2022-07-17T19:57:13;22.90;96.90
52669;DHT22;59898;52.786;6.892;2022-07-17T20:00:33;22.80;96.70
52669;DHT22;59898;52.786;6.892;2022-07-17T20:03:54;22.80;96.70
52669;DHT22;59898;52.786;6.892;2022-07-17T20:07:15;22.70;96.80
52669;DHT22;59898;52.786;6.892;2022-07-17T20:10:36;22.60;96.70
52669;DHT22;59898;52.786;6.892;2022-07-17T20:13:57;22.70;96.80
52669;DHT22;59898;52.786;6.892;2022-07-17T20:17:17;22.70;96.80
52669;DHT22;59898;52.786;6.892;2022-07-17T20:20:38;22.60;97.00
52669;DHT22;59898;52.786;6.892;2022-07-17T20:23:59;22.50;97.20
52669;DHT22;59898;52.786;6.892;2022-07-17T20:27:20;22.50;97.50
52669;DHT22;59898;52.786;6.892;2022-07-17T20:30:40;22.50;97.80
52669;DHT22;59898;52.786;6.892;2022-07-17T20:34:03;22.30;97.80
52669;DHT22;59898;52.786;6.892;2022-07-17T20:37:24;22.50;97.90
52669;DHT22;59898;52.786;6.892;2022-07-17T20:40:44;22.50;98.00
52669;DHT22;59898;52.786;6.892;2022-07-17T20:44:05;22.50;98.10
52669;DHT22;59898;52.786;6.892;2022-07-17T20:47:26;22.50;98.20
52669;DHT22;59898;52.786;6.892;2022-07-17T20:50:46;22.50;98.20
52669;DHT22;59898;52.786;6.892;2022-07-17T20:54:07;22.50;98.20
52669;DHT22;59898;52.786;6.892;2022-07-17T20:57:28;22.50;98.30
52669;DHT22;59898;52.786;6.892;2022-07-17T21:00:49;22.60;98.70
52669;DHT22;59898;52.786;6.892;2022-07-17T21:04:10;22.60;98.40
52669;DHT22;59898;52.786;6.892;2022-07-17T21:07:31;22.50;98.60
52669;DHT22;59898;52.786;6.892;2022-07-17T21:10:52;22.10;99.30
52669;DHT22;59898;52.786;6.892;2022-07-17T21:14:16;21.70;99.90
52669;DHT22;59898;52.786;6.892;2022-07-17T21:17:36;21.50;99.90